sensor_id;sensor_type;location;lat;lon;timestamp;P1;durP1;ratioP1;P2;durP2;ratioP2
29432;SDS011;16405;53.964;13.448;2022-08-04T00:02:08;8.43;;;3.50;;
29432;SDS011;16405;53.964;13.448;2022-08-04T00:04:59;10.80;;;3.35;;
29432;SDS011;16405;53.964;13.448;2022-08-04T00:07:40;9.45;;;3.53;;
29432;SDS011;16405;53.964;13.448;2022-08-04T00:10:22;11.98;;;3.50;;
29432;SDS011;16405;53.964;13.448;2022-08-04T00:12:51;8.52;;;2.97;;
29432;SDS011;16405;53.964;13.448;2022-08-04T00:15:20;9.25;;;3.13;;
29432;SDS011;16405;53.964;13.448;2022-08-04T00:17:49;11.85;;;3.08;;
29432;SDS011;16405;53.964;13.448;2022-08-04T00:20:37;8.02;;;3.17;;
29432;SDS011;16405;53.964;13.448;2022-08-04T00:23:07;8.30;;;3.40;;
29432;SDS011;16405;53.964;13.448;2022-08-04T00:25:37;10.95;;;3.70;;
29432;SDS011;16405;53.964;13.448;2022-08-04T00:28:05;5.78;;;3.50;;
29432;SDS011;16405;53.964;13.448;2022-08-04T00:30:31;5.53;;;3.30;;
29432;SDS011;16405;53.964;13.448;2022-08-04T00:32:57;9.27;;;3.55;;
29432;SDS011;16405;53.964;13.448;2022-08-04T00:35:24;16.88;;;4.07;;
29432;SDS011;16405;53.964;13.448;2022-08-04T00:37:52;14.77;;;3.70;;
29432;SDS011;16405;53.964;13.448;2022-08-04T00:46:14;9.27;;;3.70;;
29432;SDS011;16405;53.964;13.448;2022-08-04T00:52:03;6.45;;;3.85;;
29432;SDS011;16405;53.964;13.448;2022-08-04T00:54:56;9.13;;;3.75;;
29432;SDS011;16405;53.964;13.448;2022-08-04T00:57:49;10.27;;;3.75;;
29432;SDS011;16405;53.964;13.448;2022-08-04T01:01:04;9.95;;;4.30;;
29432;SDS011;16405;53.964;13.448;2022-08-04T01:09:12;8.32;;;4.88;;
29432;SDS011;16405;53.964;13.448;2022-08-04T01:12:11;6.40;;;4.35;;
29432;SDS011;16405;53.964;13.448;2022-08-04T01:15:09;8.77;;;3.88;;
29432;SDS011;16405;53.964;13.448;2022-08-04T01:23:57;6.85;;;3.70;;
29432;SDS011;16405;53.964;13.448;2022-08-04T01:29:48;6.88;;;3.55;;
29432;SDS011;16405;53.964;13.448;2022-08-04T01:32:19;6.88;;;3.55;;
29432;SDS011;16405;53.964;13.448;2022-08-04T01:35:04;5.97;;;3.53;;
29432;SDS011;16405;53.964;13.448;2022-08-04T01:40:35;8.73;;;3.63;;
29432;SDS011;16405;53.964;13.448;2022-08-04T01:43:05;10.38;;;3.90;;
29432;SDS011;16405;53.964;13.448;2022-08-04T01:45:33;10.27;;;3.92;;
29432;SDS011;16405;53.964;13.448;2022-08-04T01:48:02;9.95;;;3.80;;
29432;SDS011;16405;53.964;13.448;2022-08-04T01:50:31;9.50;;;3.70;;
29432;SDS011;16405;53.964;13.448;2022-08-04T01:53:03;8.82;;;3.30;;
29432;SDS011;16405;53.964;13.448;2022-08-04T01:55:29;9.30;;;3.60;;
29432;SDS011;16405;53.964;13.448;2022-08-04T01:57:57;6.13;;;3.50;;
29432;SDS011;16405;53.964;13.448;2022-08-04T02:00:26;7.45;;;4.05;;
29432;SDS011;16405;53.964;13.448;2022-08-04T02:02:56;9.90;;;4.10;;
29432;SDS011;16405;53.964;13.448;2022-08-04T02:05:23;7.03;;;3.92;;
29432;SDS011;16405;53.964;13.448;2022-08-04T02:13:38;4.72;;;4.15;;
29432;SDS011;16405;53.964;13.448;2022-08-04T02:21:33;7.30;;;4.53;;
29432;SDS011;16405;53.964;13.448;2022-08-04T02:24:02;6.63;;;4.30;;
29432;SDS011;16405;53.964;13.448;2022-08-04T02:26:33;6.07;;;4.20;;
29432;SDS011;16405;53.964;13.448;2022-08-04T02:32:04;8.85;;;4.88;;
29432;SDS011;16405;53.964;13.448;2022-08-04T02:34:47;18.80;;;5.13;;
29432;SDS011;16405;53.964;13.448;2022-08-04T02:37:29;12.38;;;4.60;;
29432;SDS011;16405;53.964;13.448;2022-08-04T02:39:57;11.95;;;5.10;;
29432;SDS011;16405;53.964;13.448;2022-08-04T02:42:29;10.73;;;4.80;;
29432;SDS011;16405;53.964;13.448;2022-08-04T02:45:01;7.32;;;5.53;;
29432;SDS011;16405;53.964;13.448;2022-08-04T02:47:29;9.25;;;6.00;;
29432;SDS011;16405;53.964;13.448;2022-08-04T02:49:56;8.20;;;6.20;;
29432;SDS011;16405;53.964;13.448;2022-08-04T02:52:23;10.93;;;5.68;;
29432;SDS011;16405;53.964;13.448;2022-08-04T02:54:51;12.35;;;5.97;;
29432;SDS011;16405;53.964;13.448;2022-08-04T02:57:25;15.70;;;5.78;;
29432;SDS011;16405;53.964;13.448;2022-08-04T03:14:48;20.00;;;5.78;;
29432;SDS011;16405;53.964;13.448;2022-08-04T03:40:43;16.15;;;6.53;;
29432;SDS011;16405;53.964;13.448;2022-08-04T03:47:02;13.38;;;6.30;;
29432;SDS011;16405;53.964;13.448;2022-08-04T04:06:48;16.35;;;6.68;;
29432;SDS011;16405;53.964;13.448;2022-08-04T04:25:11;8.00;;;3.85;;
29432;SDS011;16405;53.964;13.448;2022-08-04T04:34:07;8.40;;;4.70;;
29432;SDS011;16405;53.964;13.448;2022-08-04T04:48:26;15.13;;;3.55;;
29432;SDS011;16405;53.964;13.448;2022-08-04T04:56:44;36.90;;;4.70;;
29432;SDS011;16405;53.964;13.448;2022-08-04T04:59:35;35.30;;;4.50;;
29432;SDS011;16405;53.964;13.448;2022-08-04T05:07:59;11.15;;;4.30;;
29432;SDS011;16405;53.964;13.448;2022-08-04T05:13:42;8.65;;;3.70;;
29432;SDS011;16405;53.964;13.448;2022-08-04T05:18:43;5.13;;;3.50;;
29432;SDS011;16405;53.964;13.448;2022-08-04T05:24:09;11.65;;;3.78;;
29432;SDS011;16405;53.964;13.448;2022-08-04T05:26:40;13.15;;;3.92;;
29432;SDS011;16405;53.964;13.448;2022-08-04T05:29:15;10.82;;;3.80;;
29432;SDS011;16405;53.964;13.448;2022-08-04T05:31:51;10.63;;;3.17;;
29432;SDS011;16405;53.964;13.448;2022-08-04T05:34:27;17.00;;;4.78;;
29432;SDS011;16405;53.964;13.448;2022-08-04T05:37:10;10.47;;;3.40;;
29432;SDS011;16405;53.964;13.448;2022-08-04T05:39:43;7.70;;;2.90;;
29432;SDS011;16405;53.964;13.448;2022-08-04T05:42:18;10.45;;;3.63;;
29432;SDS011;16405;53.964;13.448;2022-08-04T05:44:45;14.05;;;3.40;;
29432;SDS011;16405;53.964;13.448;2022-08-04T05:47:11;6.55;;;2.85;;
29432;SDS011;16405;53.964;13.448;2022-08-04T05:49:39;8.10;;;2.90;;
29432;SDS011;16405;53.964;13.448;2022-08-04T05:52:07;9.48;;;3.03;;
29432;SDS011;16405;53.964;13.448;2022-08-04T05:54:36;9.52;;;3.60;;
29432;SDS011;16405;53.964;13.448;2022-08-04T05:57:06;10.40;;;3.13;;
29432;SDS011;16405;53.964;13.448;2022-08-04T05:59:35;6.63;;;2.70;;
29432;SDS011;16405;53.964;13.448;2022-08-04T06:02:04;4.95;;;2.70;;
29432;SDS011;16405;53.964;13.448;2022-08-04T06:04:34;5.20;;;2.70;;
29432;SDS011;16405;53.964;13.448;2022-08-04T06:07:04;7.15;;;2.97;;
29432;SDS011;16405;53.964;13.448;2022-08-04T06:09:31;5.97;;;2.60;;
29432;SDS011;16405;53.964;13.448;2022-08-04T06:11:59;6.40;;;2.45;;
29432;SDS011;16405;53.964;13.448;2022-08-04T06:14:27;8.02;;;2.70;;
29432;SDS011;16405;53.964;13.448;2022-08-04T06:17:00;6.95;;;2.58;;
29432;SDS011;16405;53.964;13.448;2022-08-04T06:19:32;8.60;;;2.50;;
29432;SDS011;16405;53.964;13.448;2022-08-04T06:22:02;6.32;;;2.60;;
29432;SDS011;16405;53.964;13.448;2022-08-04T06:24:30;7.72;;;2.33;;
29432;SDS011;16405;53.964;13.448;2022-08-04T06:26:58;5.57;;;2.28;;
29432;SDS011;16405;53.964;13.448;2022-08-04T06:29:27;10.35;;;2.30;;
29432;SDS011;16405;53.964;13.448;2022-08-04T06:32:00;23.75;;;3.08;;
29432;SDS011;16405;53.964;13.448;2022-08-04T06:34:38;42.83;;;3.72;;
29432;SDS011;16405;53.964;13.448;2022-08-04T06:37:08;12.82;;;2.50;;
29432;SDS011;16405;53.964;13.448;2022-08-04T06:39:35;8.82;;;2.55;;
29432;SDS011;16405;53.964;13.448;2022-08-04T06:42:02;3.92;;;2.20;;
29432;SDS011;16405;53.964;13.448;2022-08-04T06:44:29;5.70;;;2.30;;
29432;SDS011;16405;53.964;13.448;2022-08-04T06:46:58;7.20;;;2.50;;
29432;SDS011;16405;53.964;13.448;2022-08-04T06:49:25;12.77;;;2.40;;
29432;SDS011;16405;53.964;13.448;2022-08-04T06:51:52;5.28;;;2.17;;
29432;SDS011;16405;53.964;13.448;2022-08-04T06:54:19;33.38;;;3.30;;
29432;SDS011;16405;53.964;13.448;2022-08-04T06:56:45;28.95;;;3.17;;
29432;SDS011;16405;53.964;13.448;2022-08-04T06:59:13;12.60;;;2.50;;
29432;SDS011;16405;53.964;13.448;2022-08-04T07:01:41;3.42;;;2.17;;
29432;SDS011;16405;53.964;13.448;2022-08-04T07:04:09;5.30;;;2.35;;
29432;SDS011;16405;53.964;13.448;2022-08-04T07:06:35;4.32;;;2.13;;
29432;SDS011;16405;53.964;13.448;2022-08-04T07:09:01;6.45;;;2.45;;
29432;SDS011;16405;53.964;13.448;2022-08-04T07:11:29;8.32;;;2.40;;
29432;SDS011;16405;53.964;13.448;2022-08-04T07:13:56;10.35;;;2.50;;
29432;SDS011;16405;53.964;13.448;2022-08-04T07:16:25;10.82;;;2.33;;
29432;SDS011;16405;53.964;13.448;2022-08-04T07:18:51;8.52;;;2.20;;
29432;SDS011;16405;53.964;13.448;2022-08-04T07:21:20;9.68;;;2.22;;
29432;SDS011;16405;53.964;13.448;2022-08-04T07:23:48;9.32;;;2.70;;
29432;SDS011;16405;53.964;13.448;2022-08-04T07:26:15;7.55;;;2.53;;
29432;SDS011;16405;53.964;13.448;2022-08-04T07:28:43;12.90;;;2.40;;
29432;SDS011;16405;53.964;13.448;2022-08-04T07:31:10;35.42;;;3.55;;
29432;SDS011;16405;53.964;13.448;2022-08-04T07:33:41;19.38;;;2.90;;
29432;SDS011;16405;53.964;13.448;2022-08-04T07:36:09;17.48;;;2.70;;
29432;SDS011;16405;53.964;13.448;2022-08-04T07:38:36;38.90;;;2.83;;
29432;SDS011;16405;53.964;13.448;2022-08-04T07:41:07;19.67;;;2.17;;
29432;SDS011;16405;53.964;13.448;2022-08-04T07:43:34;25.17;;;2.35;;
29432;SDS011;16405;53.964;13.448;2022-08-04T07:46:02;11.68;;;2.30;;
29432;SDS011;16405;53.964;13.448;2022-08-04T07:48:28;3.25;;;1.88;;
29432;SDS011;16405;53.964;13.448;2022-08-04T07:50:56;21.60;;;2.83;;
29432;SDS011;16405;53.964;13.448;2022-08-04T07:53:23;23.88;;;3.13;;
29432;SDS011;16405;53.964;13.448;2022-08-04T07:55:51;32.00;;;3.20;;
29432;SDS011;16405;53.964;13.448;2022-08-04T07:58:18;14.55;;;2.50;;
29432;SDS011;16405;53.964;13.448;2022-08-04T08:00:44;24.33;;;3.03;;
29432;SDS011;16405;53.964;13.448;2022-08-04T08:03:14;11.80;;;2.33;;
29432;SDS011;16405;53.964;13.448;2022-08-04T08:05:40;16.90;;;2.22;;
29432;SDS011;16405;53.964;13.448;2022-08-04T08:08:06;19.08;;;2.80;;
29432;SDS011;16405;53.964;13.448;2022-08-04T08:10:32;13.50;;;2.10;;
29432;SDS011;16405;53.964;13.448;2022-08-04T08:12:58;27.67;;;2.67;;
29432;SDS011;16405;53.964;13.448;2022-08-04T08:15:24;14.05;;;2.03;;
29432;SDS011;16405;53.964;13.448;2022-08-04T08:17:50;5.30;;;1.60;;
29432;SDS011;16405;53.964;13.448;2022-08-04T08:20:18;2.38;;;1.70;;
29432;SDS011;16405;53.964;13.448;2022-08-04T08:22:45;5.72;;;1.80;;
29432;SDS011;16405;53.964;13.448;2022-08-04T08:25:11;10.38;;;1.90;;
29432;SDS011;16405;53.964;13.448;2022-08-04T08:27:37;11.45;;;1.92;;
29432;SDS011;16405;53.964;13.448;2022-08-04T08:30:03;4.80;;;1.63;;
29432;SDS011;16405;53.964;13.448;2022-08-04T08:32:30;6.03;;;1.80;;
29432;SDS011;16405;53.964;13.448;2022-08-04T08:34:56;6.55;;;1.92;;
29432;SDS011;16405;53.964;13.448;2022-08-04T08:37:29;3.72;;;1.67;;
29432;SDS011;16405;53.964;13.448;2022-08-04T08:43:31;7.13;;;1.48;;
29432;SDS011;16405;53.964;13.448;2022-08-04T08:53:09;9.57;;;1.52;;
29432;SDS011;16405;53.964;13.448;2022-08-04T08:57:11;12.18;;;2.10;;
29432;SDS011;16405;53.964;13.448;2022-08-04T09:09:15;6.53;;;1.90;;
29432;SDS011;16405;53.964;13.448;2022-08-04T09:12:24;7.90;;;1.60;;
29432;SDS011;16405;53.964;13.448;2022-08-04T09:15:26;8.68;;;1.90;;
29432;SDS011;16405;53.964;13.448;2022-08-04T09:21:01;6.97;;;1.50;;
29432;SDS011;16405;53.964;13.448;2022-08-04T09:32:35;5.03;;;1.38;;
29432;SDS011;16405;53.964;13.448;2022-08-04T09:35:39;21.60;;;1.90;;
29432;SDS011;16405;53.964;13.448;2022-08-04T09:38:40;13.10;;;1.90;;
29432;SDS011;16405;53.964;13.448;2022-08-04T09:44:57;3.83;;;1.25;;
29432;SDS011;16405;53.964;13.448;2022-08-04T09:47:38;13.52;;;1.95;;
29432;SDS011;16405;53.964;13.448;2022-08-04T09:50:44;2.78;;;1.52;;
29432;SDS011;16405;53.964;13.448;2022-08-04T09:53:41;8.80;;;1.83;;
29432;SDS011;16405;53.964;13.448;2022-08-04T09:56:29;6.65;;;1.30;;
29432;SDS011;16405;53.964;13.448;2022-08-04T09:59:22;16.48;;;1.60;;
29432;SDS011;16405;53.964;13.448;2022-08-04T10:01:58;8.48;;;1.60;;
29432;SDS011;16405;53.964;13.448;2022-08-04T10:04:35;3.22;;;1.40;;
29432;SDS011;16405;53.964;13.448;2022-08-04T10:15:45;4.88;;;1.65;;
29432;SDS011;16405;53.964;13.448;2022-08-04T10:27:55;5.47;;;1.60;;
29432;SDS011;16405;53.964;13.448;2022-08-04T10:30:27;1.73;;;1.40;;
29432;SDS011;16405;53.964;13.448;2022-08-04T10:36:08;9.63;;;1.70;;
29432;SDS011;16405;53.964;13.448;2022-08-04T10:41:38;7.13;;;1.60;;
29432;SDS011;16405;53.964;13.448;2022-08-04T10:47:12;2.20;;;1.40;;
29432;SDS011;16405;53.964;13.448;2022-08-04T10:49:49;5.20;;;1.50;;
29432;SDS011;16405;53.964;13.448;2022-08-04T10:55:24;8.02;;;1.83;;
29432;SDS011;16405;53.964;13.448;2022-08-04T10:58:01;2.97;;;1.50;;
29432;SDS011;16405;53.964;13.448;2022-08-04T11:00:30;7.20;;;1.60;;
29432;SDS011;16405;53.964;13.448;2022-08-04T11:03:03;1.92;;;1.48;;
29432;SDS011;16405;53.964;13.448;2022-08-04T11:05:47;5.88;;;1.50;;
29432;SDS011;16405;53.964;13.448;2022-08-04T11:08:31;2.67;;;1.60;;
29432;SDS011;16405;53.964;13.448;2022-08-04T11:14:30;7.35;;;1.88;;
29432;SDS011;16405;53.964;13.448;2022-08-04T11:20:10;6.35;;;1.55;;
29432;SDS011;16405;53.964;13.448;2022-08-04T11:26:20;3.30;;;1.40;;
29432;SDS011;16405;53.964;13.448;2022-08-04T11:31:48;8.55;;;1.88;;
29432;SDS011;16405;53.964;13.448;2022-08-04T11:34:21;5.00;;;1.63;;
29432;SDS011;16405;53.964;13.448;2022-08-04T11:37:05;9.27;;;1.70;;
29432;SDS011;16405;53.964;13.448;2022-08-04T11:40:12;10.80;;;1.73;;
29432;SDS011;16405;53.964;13.448;2022-08-04T11:45:37;5.55;;;1.67;;
29432;SDS011;16405;53.964;13.448;2022-08-04T11:48:21;3.72;;;1.90;;
29432;SDS011;16405;53.964;13.448;2022-08-04T11:51:14;14.63;;;2.00;;
29432;SDS011;16405;53.964;13.448;2022-08-04T11:53:42;8.50;;;1.70;;
29432;SDS011;16405;53.964;13.448;2022-08-04T11:56:10;11.73;;;1.80;;
29432;SDS011;16405;53.964;13.448;2022-08-04T11:58:39;8.15;;;2.00;;
29432;SDS011;16405;53.964;13.448;2022-08-04T12:12:12;3.63;;;1.52;;
29432;SDS011;16405;53.964;13.448;2022-08-04T12:15:22;3.47;;;1.40;;
29432;SDS011;16405;53.964;13.448;2022-08-04T12:20:59;5.40;;;1.50;;
29432;SDS011;16405;53.964;13.448;2022-08-04T12:23:32;5.22;;;1.70;;
29432;SDS011;16405;53.964;13.448;2022-08-04T12:26:04;4.55;;;1.48;;
29432;SDS011;16405;53.964;13.448;2022-08-04T12:28:40;7.22;;;1.30;;
29432;SDS011;16405;53.964;13.448;2022-08-04T12:34:24;2.60;;;1.60;;
29432;SDS011;16405;53.964;13.448;2022-08-04T12:39:59;3.97;;;1.67;;
29432;SDS011;16405;53.964;13.448;2022-08-04T12:45:45;2.03;;;1.48;;
29432;SDS011;16405;53.964;13.448;2022-08-04T12:48:16;12.00;;;1.90;;
29432;SDS011;16405;53.964;13.448;2022-08-04T12:50:54;4.07;;;1.52;;
29432;SDS011;16405;53.964;13.448;2022-08-04T12:53:25;9.15;;;1.88;;
29432;SDS011;16405;53.964;13.448;2022-08-04T12:56:08;8.35;;;1.67;;
29432;SDS011;16405;53.964;13.448;2022-08-04T12:58:41;4.05;;;1.60;;
29432;SDS011;16405;53.964;13.448;2022-08-04T13:03:49;5.43;;;1.65;;
29432;SDS011;16405;53.964;13.448;2022-08-04T13:06:28;13.10;;;2.53;;
29432;SDS011;16405;53.964;13.448;2022-08-04T13:09:05;9.93;;;2.17;;
29432;SDS011;16405;53.964;13.448;2022-08-04T13:11:40;7.78;;;2.13;;
29432;SDS011;16405;53.964;13.448;2022-08-04T13:14:20;14.27;;;1.58;;
29432;SDS011;16405;53.964;13.448;2022-08-04T13:16:47;7.32;;;1.73;;
29432;SDS011;16405;53.964;13.448;2022-08-04T13:19:22;5.65;;;1.77;;
29432;SDS011;16405;53.964;13.448;2022-08-04T13:21:49;8.32;;;1.98;;
29432;SDS011;16405;53.964;13.448;2022-08-04T13:24:21;5.82;;;1.90;;
29432;SDS011;16405;53.964;13.448;2022-08-04T13:26:57;10.98;;;2.10;;
29432;SDS011;16405;53.964;13.448;2022-08-04T13:32:07;4.90;;;2.30;;
29432;SDS011;16405;53.964;13.448;2022-08-04T13:34:34;12.30;;;2.08;;
29432;SDS011;16405;53.964;13.448;2022-08-04T13:37:05;7.35;;;2.30;;
29432;SDS011;16405;53.964;13.448;2022-08-04T13:39:33;6.70;;;2.30;;
29432;SDS011;16405;53.964;13.448;2022-08-04T13:42:04;8.70;;;2.20;;
29432;SDS011;16405;53.964;13.448;2022-08-04T13:44:38;10.95;;;1.73;;
29432;SDS011;16405;53.964;13.448;2022-08-04T13:47:14;7.32;;;1.70;;
29432;SDS011;16405;53.964;13.448;2022-08-04T13:50:07;14.73;;;1.50;;
29432;SDS011;16405;53.964;13.448;2022-08-04T13:52:38;8.50;;;1.60;;
29432;SDS011;16405;53.964;13.448;2022-08-04T13:55:06;24.95;;;1.60;;
29432;SDS011;16405;53.964;13.448;2022-08-04T14:00:09;5.10;;;1.58;;
29432;SDS011;16405;53.964;13.448;2022-08-04T14:02:39;9.65;;;1.73;;
29432;SDS011;16405;53.964;13.448;2022-08-04T14:08:04;6.18;;;1.88;;
29432;SDS011;16405;53.964;13.448;2022-08-04T14:10:51;4.57;;;1.48;;
29432;SDS011;16405;53.964;13.448;2022-08-04T14:13:28;10.77;;;1.60;;
29432;SDS011;16405;53.964;13.448;2022-08-04T14:16:00;5.88;;;1.85;;
29432;SDS011;16405;53.964;13.448;2022-08-04T14:18:31;5.65;;;1.58;;
29432;SDS011;16405;53.964;13.448;2022-08-04T14:23:46;6.18;;;1.42;;
29432;SDS011;16405;53.964;13.448;2022-08-04T14:26:28;13.52;;;1.50;;
29432;SDS011;16405;53.964;13.448;2022-08-04T14:29:08;9.07;;;1.48;;
29432;SDS011;16405;53.964;13.448;2022-08-04T14:31:39;6.72;;;1.52;;
29432;SDS011;16405;53.964;13.448;2022-08-04T14:34:05;14.55;;;1.70;;
29432;SDS011;16405;53.964;13.448;2022-08-04T14:36:37;7.32;;;1.70;;
29432;SDS011;16405;53.964;13.448;2022-08-04T14:41:49;10.13;;;1.70;;
29432;SDS011;16405;53.964;13.448;2022-08-04T14:44:15;5.43;;;1.70;;
29432;SDS011;16405;53.964;13.448;2022-08-04T14:46:50;6.40;;;1.65;;
29432;SDS011;16405;53.964;13.448;2022-08-04T14:49:19;5.25;;;1.48;;
29432;SDS011;16405;53.964;13.448;2022-08-04T14:51:55;5.38;;;1.63;;
29432;SDS011;16405;53.964;13.448;2022-08-04T14:54:29;2.97;;;1.40;;
29432;SDS011;16405;53.964;13.448;2022-08-04T14:57:01;16.20;;;1.88;;
29432;SDS011;16405;53.964;13.448;2022-08-04T14:59:47;6.82;;;1.95;;
29432;SDS011;16405;53.964;13.448;2022-08-04T15:02:14;8.65;;;2.08;;
29432;SDS011;16405;53.964;13.448;2022-08-04T15:04:41;5.45;;;1.70;;
29432;SDS011;16405;53.964;13.448;2022-08-04T15:07:09;5.35;;;1.58;;
29432;SDS011;16405;53.964;13.448;2022-08-04T15:09:35;4.20;;;1.73;;
29432;SDS011;16405;53.964;13.448;2022-08-04T15:12:02;5.82;;;1.55;;
29432;SDS011;16405;53.964;13.448;2022-08-04T15:14:37;3.85;;;1.60;;
29432;SDS011;16405;53.964;13.448;2022-08-04T15:17:06;6.47;;;1.50;;
29432;SDS011;16405;53.964;13.448;2022-08-04T15:19:35;7.07;;;1.38;;
29432;SDS011;16405;53.964;13.448;2022-08-04T15:22:01;4.22;;;1.77;;
29432;SDS011;16405;53.964;13.448;2022-08-04T15:24:28;4.28;;;1.70;;
29432;SDS011;16405;53.964;13.448;2022-08-04T15:26:55;2.78;;;1.50;;
29432;SDS011;16405;53.964;13.448;2022-08-04T15:29:27;10.95;;;1.48;;
29432;SDS011;16405;53.964;13.448;2022-08-04T15:31:56;6.47;;;1.65;;
29432;SDS011;16405;53.964;13.448;2022-08-04T15:34:26;7.55;;;1.40;;
29432;SDS011;16405;53.964;13.448;2022-08-04T15:37:10;12.48;;;2.03;;
29432;SDS011;16405;53.964;13.448;2022-08-04T15:40:08;15.88;;;1.60;;
29432;SDS011;16405;53.964;13.448;2022-08-04T15:45:54;5.38;;;1.40;;
29432;SDS011;16405;53.964;13.448;2022-08-04T15:48:26;9.80;;;1.50;;
29432;SDS011;16405;53.964;13.448;2022-08-04T15:53:27;3.75;;;1.48;;
29432;SDS011;16405;53.964;13.448;2022-08-04T15:58:54;5.13;;;1.30;;
29432;SDS011;16405;53.964;13.448;2022-08-04T16:01:20;3.33;;;1.20;;
29432;SDS011;16405;53.964;13.448;2022-08-04T16:03:55;6.33;;;1.70;;
29432;SDS011;16405;53.964;13.448;2022-08-04T16:22:36;7.22;;;1.70;;
29432;SDS011;16405;53.964;13.448;2022-08-04T16:25:05;5.22;;;1.50;;
29432;SDS011;16405;53.964;13.448;2022-08-04T16:27:34;4.30;;;1.60;;
29432;SDS011;16405;53.964;13.448;2022-08-04T16:30:07;1.65;;;1.55;;
29432;SDS011;16405;53.964;13.448;2022-08-04T16:32:41;3.83;;;1.40;;
29432;SDS011;16405;53.964;13.448;2022-08-04T16:35:23;6.55;;;2.10;;
29432;SDS011;16405;53.964;13.448;2022-08-04T16:38:13;3.35;;;1.50;;
29432;SDS011;16405;53.964;13.448;2022-08-04T16:40:41;5.82;;;2.08;;
29432;SDS011;16405;53.964;13.448;2022-08-04T16:43:17;4.45;;;1.65;;
29432;SDS011;16405;53.964;13.448;2022-08-04T16:51:05;4.15;;;1.60;;
29432;SDS011;16405;53.964;13.448;2022-08-04T16:56:17;5.13;;;1.60;;
29432;SDS011;16405;53.964;13.448;2022-08-04T16:58:55;4.20;;;1.65;;
29432;SDS011;16405;53.964;13.448;2022-08-04T17:01:21;3.90;;;1.80;;
29432;SDS011;16405;53.964;13.448;2022-08-04T17:03:54;3.30;;;1.90;;
29432;SDS011;16405;53.964;13.448;2022-08-04T17:06:22;4.35;;;1.50;;
29432;SDS011;16405;53.964;13.448;2022-08-04T17:08:57;2.38;;;1.70;;
29432;SDS011;16405;53.964;13.448;2022-08-04T17:11:36;2.60;;;1.50;;
29432;SDS011;16405;53.964;13.448;2022-08-04T17:14:02;5.35;;;1.77;;
29432;SDS011;16405;53.964;13.448;2022-08-04T17:16:29;3.42;;;1.70;;
29432;SDS011;16405;53.964;13.448;2022-08-04T17:19:01;4.43;;;1.63;;
29432;SDS011;16405;53.964;13.448;2022-08-04T17:21:30;8.80;;;1.80;;
29432;SDS011;16405;53.964;13.448;2022-08-04T17:23:59;8.35;;;1.88;;
29432;SDS011;16405;53.964;13.448;2022-08-04T17:26:33;8.73;;;2.20;;
29432;SDS011;16405;53.964;13.448;2022-08-04T17:29:02;5.03;;;1.60;;
29432;SDS011;16405;53.964;13.448;2022-08-04T17:31:29;9.20;;;1.90;;
29432;SDS011;16405;53.964;13.448;2022-08-04T17:34:02;2.25;;;1.40;;
29432;SDS011;16405;53.964;13.448;2022-08-04T17:36:40;3.50;;;1.67;;
29432;SDS011;16405;53.964;13.448;2022-08-04T17:39:12;5.82;;;1.80;;
29432;SDS011;16405;53.964;13.448;2022-08-04T17:41:46;2.85;;;1.80;;
29432;SDS011;16405;53.964;13.448;2022-08-04T17:44:12;8.73;;;2.50;;
29432;SDS011;16405;53.964;13.448;2022-08-04T17:46:41;15.50;;;3.15;;
29432;SDS011;16405;53.964;13.448;2022-08-04T17:52:01;13.07;;;3.42;;
29432;SDS011;16405;53.964;13.448;2022-08-04T17:57:20;9.48;;;2.83;;
29432;SDS011;16405;53.964;13.448;2022-08-04T17:59:45;9.60;;;3.30;;
29432;SDS011;16405;53.964;13.448;2022-08-04T18:02:13;8.00;;;3.40;;
29432;SDS011;16405;53.964;13.448;2022-08-04T18:04:52;12.25;;;3.72;;
29432;SDS011;16405;53.964;13.448;2022-08-04T18:07:22;10.48;;;3.47;;
29432;SDS011;16405;53.964;13.448;2022-08-04T18:10:01;13.70;;;3.40;;
29432;SDS011;16405;53.964;13.448;2022-08-04T18:12:34;7.90;;;3.40;;
29432;SDS011;16405;53.964;13.448;2022-08-04T18:15:19;9.30;;;3.60;;
29432;SDS011;16405;53.964;13.448;2022-08-04T18:17:49;9.13;;;3.20;;
29432;SDS011;16405;53.964;13.448;2022-08-04T18:20:15;12.13;;;3.20;;
29432;SDS011;16405;53.964;13.448;2022-08-04T18:22:46;6.25;;;3.13;;
29432;SDS011;16405;53.964;13.448;2022-08-04T18:25:14;7.70;;;3.53;;
29432;SDS011;16405;53.964;13.448;2022-08-04T18:27:45;9.88;;;3.05;;
29432;SDS011;16405;53.964;13.448;2022-08-04T18:30:19;4.68;;;3.22;;
29432;SDS011;16405;53.964;13.448;2022-08-04T18:32:47;7.47;;;3.10;;
29432;SDS011;16405;53.964;13.448;2022-08-04T18:35:13;7.97;;;3.28;;
29432;SDS011;16405;53.964;13.448;2022-08-04T18:37:42;7.22;;;3.22;;
29432;SDS011;16405;53.964;13.448;2022-08-04T18:40:08;7.78;;;3.25;;
29432;SDS011;16405;53.964;13.448;2022-08-04T18:42:37;14.13;;;3.10;;
29432;SDS011;16405;53.964;13.448;2022-08-04T18:45:03;4.63;;;3.15;;
29432;SDS011;16405;53.964;13.448;2022-08-04T18:47:30;6.25;;;3.15;;
29432;SDS011;16405;53.964;13.448;2022-08-04T18:49:58;9.45;;;3.55;;
29432;SDS011;16405;53.964;13.448;2022-08-04T18:52:24;7.40;;;2.92;;
29432;SDS011;16405;53.964;13.448;2022-08-04T18:54:49;9.00;;;3.53;;
29432;SDS011;16405;53.964;13.448;2022-08-04T18:57:22;7.28;;;3.13;;
29432;SDS011;16405;53.964;13.448;2022-08-04T18:59:49;11.25;;;4.38;;
29432;SDS011;16405;53.964;13.448;2022-08-04T19:02:16;7.20;;;3.45;;
29432;SDS011;16405;53.964;13.448;2022-08-04T19:04:42;9.25;;;3.35;;
29432;SDS011;16405;53.964;13.448;2022-08-04T19:07:09;7.05;;;3.10;;
29432;SDS011;16405;53.964;13.448;2022-08-04T19:09:39;12.10;;;3.45;;
29432;SDS011;16405;53.964;13.448;2022-08-04T19:12:06;12.73;;;3.40;;
29432;SDS011;16405;53.964;13.448;2022-08-04T19:14:32;35.30;;;3.50;;
29432;SDS011;16405;53.964;13.448;2022-08-04T19:16:58;10.65;;;2.47;;
29432;SDS011;16405;53.964;13.448;2022-08-04T19:19:30;22.20;;;2.67;;
29432;SDS011;16405;53.964;13.448;2022-08-04T19:21:58;30.40;;;2.95;;
29432;SDS011;16405;53.964;13.448;2022-08-04T19:24:24;16.27;;;2.13;;
29432;SDS011;16405;53.964;13.448;2022-08-04T19:26:50;29.05;;;2.25;;
29432;SDS011;16405;53.964;13.448;2022-08-04T19:29:16;17.17;;;2.35;;
29432;SDS011;16405;53.964;13.448;2022-08-04T19:31:43;5.75;;;1.60;;
29432;SDS011;16405;53.964;13.448;2022-08-04T19:34:14;12.20;;;2.35;;
29432;SDS011;16405;53.964;13.448;2022-08-04T19:36:40;11.60;;;2.30;;
29432;SDS011;16405;53.964;13.448;2022-08-04T19:39:07;22.50;;;2.45;;
29432;SDS011;16405;53.964;13.448;2022-08-04T19:41:33;7.63;;;1.90;;
29432;SDS011;16405;53.964;13.448;2022-08-04T19:44:01;11.35;;;1.98;;
29432;SDS011;16405;53.964;13.448;2022-08-04T19:46:31;16.15;;;2.40;;
29432;SDS011;16405;53.964;13.448;2022-08-04T19:48:58;12.70;;;2.15;;
29432;SDS011;16405;53.964;13.448;2022-08-04T19:51:28;7.93;;;2.25;;
29432;SDS011;16405;53.964;13.448;2022-08-04T19:53:59;6.18;;;2.20;;
29432;SDS011;16405;53.964;13.448;2022-08-04T19:56:25;11.82;;;2.63;;
29432;SDS011;16405;53.964;13.448;2022-08-04T19:58:53;7.20;;;2.20;;
29432;SDS011;16405;53.964;13.448;2022-08-04T20:01:23;10.90;;;2.65;;
29432;SDS011;16405;53.964;13.448;2022-08-04T20:03:57;11.75;;;2.58;;
29432;SDS011;16405;53.964;13.448;2022-08-04T20:06:25;5.97;;;2.15;;
29432;SDS011;16405;53.964;13.448;2022-08-04T20:08:54;14.70;;;2.72;;
29432;SDS011;16405;53.964;13.448;2022-08-04T20:11:20;10.20;;;2.40;;
29432;SDS011;16405;53.964;13.448;2022-08-04T20:13:47;8.27;;;2.47;;
29432;SDS011;16405;53.964;13.448;2022-08-04T20:16:13;10.98;;;2.22;;
29432;SDS011;16405;53.964;13.448;2022-08-04T20:18:45;7.57;;;2.60;;